Time;durP1;ratioP1;P1;durP2;ratioP2;P2;SDS_P1;SDS_P2;PMS_P1;PMS_P2;Temp;Humidity;BMP_temperature;BMP_pressure;BME280_temperature;BME280_humidity;BME280_pressure;Samples;Min_cycle;Max_cycle;Signal;HPM_P1;HPM_P2
2022/07/01 00:00:03;;;;;;;8.33;5.17;;;23.60;75.70;;;;;;5031102;28;20266;-81
2022/07/01 00:02:39;;;;;;;9.43;5.33;;;23.60;75.90;;;;;;5031811;28;20295;-80
2022/07/01 00:05:21;;;;;;;13.67;5.60;;;23.50;75.90;;;;;;5038348;28;20214;-83
2022/07/01 00:08:07;;;;;;;9.10;4.73;;;23.50;76.10;;;;;;5054149;28;20203;-83
2022/07/01 00:10:37;;;;;;;12.67;5.10;;;23.50;75.90;;;;;;5037642;28;20701;-82
2022/07/01 00:13:12;;;;;;;10.93;5.20;;;23.40;75.80;;;;;;5042895;28;20203;-81
2022/07/01 00:15:46;;;;;;;12.80;4.43;;;23.30;75.80;;;;;;5030134;28;20214;-80
2022/07/01 00:18:20;;;;;;;17.33;5.83;;;23.30;75.40;;;;;;5046797;28;20203;-81
2022/07/01 00:20:48;;;;;;;10.17;4.60;;;23.20;75.30;;;;;;5023007;28;20254;-79
2022/07/01 00:23:16;;;;;;;7.20;4.27;;;23.20;75.50;;;;;;5053712;28;20695;-79
2022/07/01 00:25:45;;;;;;;6.10;4.53;;;23.20;76.00;;;;;;5022331;28;20302;-79
2022/07/01 00:28:12;;;;;;;10.47;6.20;;;23.20;76.20;;;;;;5024227;28;20206;-79
2022/07/01 00:30:39;;;;;;;16.83;5.73;;;23.20;76.40;;;;;;5037068;28;20285;-79
2022/07/01 00:33:07;;;;;;;6.37;4.23;;;23.10;76.00;;;;;;5036313;28;20290;-79
2022/07/01 00:35:35;;;;;;;9.03;4.60;;;23.10;75.80;;;;;;5039212;28;20219;-80
2022/07/01 00:38:02;;;;;;;6.57;4.70;;;23.00;75.60;;;;;;5030190;28;20207;-80
2022/07/01 00:40:30;;;;;;;10.43;5.40;;;23.00;75.90;;;;;;5024900;28;20200;-79
2022/07/01 00:42:58;;;;;;;9.43;6.17;;;22.90;76.40;;;;;;5034445;28;20203;-80
2022/07/01 00:45:25;;;;;;;14.80;6.43;;;22.90;76.90;;;;;;5035240;28;20277;-80
2022/07/01 00:47:56;;;;;;;10.77;5.63;;;22.90;77.30;;;;;;5028377;28;20204;-80
2022/07/01 00:50:23;;;;;;;11.23;6.13;;;22.90;77.30;;;;;;5045064;28;20210;-80
2022/07/01 00:52:51;;;;;;;8.07;5.47;;;22.80;77.50;;;;;;5036817;28;20561;-80
2022/07/01 00:55:18;;;;;;;9.40;5.30;;;22.80;77.40;;;;;;5008448;28;20569;-80
2022/07/01 00:57:48;;;;;;;6.57;5.10;;;22.80;77.40;;;;;;5035646;28;20693;-80
2022/07/01 01:00:25;;;;;;;9.70;5.57;;;22.80;76.40;;;;;;5032577;28;20222;-80
2022/07/01 01:02:55;;;;;;;10.73;6.60;;;22.80;76.00;;;;;;5030308;28;20209;-79
2022/07/01 01:05:28;;;;;;;9.80;5.90;;;22.70;76.70;;;;;;5032118;28;20318;-80
2022/07/01 01:07:58;;;;;;;7.00;5.63;;;22.70;77.30;;;;;;5031416;28;20199;-79
2022/07/01 01:10:27;;;;;;;9.83;5.43;;;22.70;77.30;;;;;;5036448;28;20195;-79
2022/07/01 01:12:57;;;;;;;7.63;5.20;;;22.60;77.20;;;;;;5032461;28;20592;-79
2022/07/01 01:15:24;;;;;;;19.10;6.37;;;22.60;76.80;;;;;;5033930;28;20225;-80
2022/07/01 01:17:51;;;;;;;9.30;5.50;;;22.60;76.80;;;;;;5028949;28;20242;-79
2022/07/01 01:20:20;;;;;;;13.77;5.63;;;22.50;77.10;;;;;;5021285;28;20643;-80
2022/07/01 01:22:48;;;;;;;5.33;4.80;;;22.60;77.20;;;;;;5030576;28;20285;-80
2022/07/01 01:25:16;;;;;;;10.53;4.63;;;22.50;76.20;;;;;;5030015;28;20215;-79
2022/07/01 01:27:44;;;;;;;9.17;4.57;;;22.50;75.10;;;;;;5040885;28;20210;-79
2022/07/01 01:30:12;;;;;;;11.97;6.50;;;22.40;74.70;;;;;;5050582;28;20209;-79
2022/07/01 01:32:47;;;;;;;10.23;6.53;;;22.40;75.40;;;;;;5039775;28;20272;-79
2022/07/01 01:35:22;;;;;;;8.30;6.07;;;22.40;76.70;;;;;;5041114;28;20226;-79
2022/07/01 01:38:09;;;;;;;6.30;5.23;;;22.30;76.90;;;;;;5020561;28;20210;-80
2022/07/01 01:40:45;;;;;;;10.93;5.80;;;22.30;77.50;;;;;;5046603;28;20210;-79
2022/07/01 01:43:16;;;;;;;9.03;5.20;;;22.30;77.80;;;;;;5033954;28;20257;-80
2022/07/01 01:45:49;;;;;;;7.47;5.50;;;22.20;77.50;;;;;;5031294;28;20225;-80
2022/07/01 01:48:17;;;;;;;13.43;5.63;;;22.20;77.60;;;;;;5036665;28;20198;-79
2022/07/01 01:50:44;;;;;;;15.00;6.00;;;22.10;77.80;;;;;;5033480;28;20214;-79
2022/07/01 01:53:11;;;;;;;8.50;5.83;;;22.10;77.70;;;;;;5047259;28;20206;-79
2022/07/01 01:55:38;;;;;;;11.57;6.00;;;22.10;77.90;;;;;;5038782;28;20230;-79
2022/07/01 01:58:05;;;;;;;7.40;6.37;;;22.10;78.40;;;;;;5034222;28;20302;-80
2022/07/01 02:00:32;;;;;;;7.63;5.13;;;22.00;78.50;;;;;;5028307;28;20306;-79
2022/07/01 02:02:59;;;;;;;11.27;6.27;;;22.00;78.60;;;;;;5030086;28;20215;-79
2022/07/01 02:05:27;;;;;;;11.90;6.83;;;21.90;78.60;;;;;;5036509;28;20209;-80
2022/07/01 02:07:54;;;;;;;12.43;6.80;;;21.90;79.00;;;;;;5035119;28;20217;-79
2022/07/01 02:10:22;;;;;;;9.70;5.73;;;21.90;79.70;;;;;;5036046;28;20217;-79
2022/07/01 02:12:49;;;;;;;9.97;6.00;;;21.90;78.90;;;;;;5034218;28;20211;-79
2022/07/01 02:15:16;;;;;;;13.70;6.20;;;21.90;78.80;;;;;;5021799;28;20534;-79
2022/07/01 02:17:43;;;;;;;11.07;5.67;;;21.80;79.20;;;;;;5041746;28;20210;-80
2022/07/01 02:20:16;;;;;;;9.20;5.43;;;21.80;79.40;;;;;;5049621;28;20205;-79
2022/07/01 02:22:57;;;;;;;13.97;6.03;;;21.80;79.40;;;;;;5029731;28;20205;-80
2022/07/01 02:26:00;;;;;;;12.50;5.93;;;21.80;79.40;;;;;;5029369;28;20264;-80
2022/07/01 02:29:29;;;;;;;6.63;4.60;;;21.80;79.40;;;;;;5024278;28;20202;-80
2022/07/01 02:32:18;;;;;;;10.03;5.70;;;21.70;78.40;;;;;;5026242;28;20278;-79
2022/07/01 02:35:44;;;;;;;9.50;5.93;;;21.70;77.80;;;;;;5033279;28;20232;-80
2022/07/01 02:38:26;;;;;;;15.30;6.23;;;21.60;78.60;;;;;;5029446;28;20202;-79
2022/07/01 02:41:12;;;;;;;9.83;5.73;;;21.60;79.10;;;;;;5021642;28;20202;-79
2022/07/01 02:44:39;;;;;;;9.27;5.97;;;21.50;79.40;;;;;;5019034;28;20207;-79
2022/07/01 02:47:49;;;;;;;13.20;6.83;;;21.50;79.30;;;;;;5042378;28;20260;-80
2022/07/01 02:51:00;;;;;;;9.40;7.13;;;21.40;79.40;;;;;;5015018;28;20223;-80
2022/07/01 02:54:30;;;;;;;10.07;7.90;;;21.50;80.30;;;;;;5031901;28;20244;-80
2022/07/01 02:58:44;;;;;;;21.03;7.43;;;21.40;80.80;;;;;;5033491;28;20261;-80
2022/07/01 03:14:15;;;;;;;18.50;7.50;;;21.40;79.90;;;;;;5056769;28;20246;-79
2022/07/01 03:16:59;;;;;;;10.07;7.13;;;21.30;80.20;;;;;;5049346;28;20215;-79
2022/07/01 03:20:01;;;;;;;8.03;7.20;;;21.30;80.50;;;;;;5026256;28;20622;-79
2022/07/01 03:23:04;;;;;;;10.90;8.23;;;21.40;80.20;;;;;;5022674;28;20205;-80
2022/07/01 03:25:45;;;;;;;9.87;7.67;;;21.40;78.60;;;;;;5040436;28;20232;-80
2022/07/01 03:28:38;;;;;;;11.93;7.90;;;21.30;78.20;;;;;;5038327;28;20312;-79
2022/07/01 03:31:42;;;;;;;13.23;8.93;;;21.30;77.80;;;;;;5024523;28;20292;-79
2022/07/01 03:34:44;;;;;;;9.90;8.03;;;21.30;77.50;;;;;;5048766;28;20232;-79
2022/07/01 03:37:27;;;;;;;10.97;8.60;;;21.30;77.20;;;;;;5009468;28;20297;-79
2022/07/01 03:40:34;;;;;;;14.13;8.33;;;21.30;77.10;;;;;;5038462;28;20305;-79
2022/07/01 03:43:55;;;;;;;12.10;8.20;;;21.30;77.40;;;;;;5033786;28;20214;-79
2022/07/01 03:46:39;;;;;;;9.50;8.00;;;21.30;77.70;;;;;;5023418;28;20270;-80
2022/07/01 03:49:40;;;;;;;10.53;8.77;;;21.30;78.00;;;;;;5024824;28;20714;-80
2022/07/01 03:56:47;;;;;;;10.30;8.70;;;21.20;78.00;;;;;;5039767;28;20260;-79
2022/07/01 03:59:52;;;;;;;14.43;8.80;;;21.20;78.30;;;;;;5034951;28;20217;-80
2022/07/01 04:03:03;;;;;;;9.80;8.80;;;21.20;78.20;;;;;;5043833;28;20660;-80
2022/07/01 04:05:44;;;;;;;12.33;7.83;;;21.30;78.20;;;;;;5024931;28;20213;-80
2022/07/01 04:08:53;;;;;;;12.23;8.03;;;21.30;78.20;;;;;;5054889;28;20290;-79
2022/07/01 04:12:22;;;;;;;9.47;7.93;;;21.30;78.00;;;;;;5051850;28;20249;-80
2022/07/01 04:15:58;;;;;;;10.67;7.47;;;21.40;78.10;;;;;;5060184;28;20318;-80
2022/07/01 04:18:52;;;;;;;15.10;8.27;;;21.40;78.00;;;;;;5037203;28;20209;-80
2022/07/01 04:22:38;;;;;;;12.13;7.67;;;21.40;78.10;;;;;;5046504;28;20208;-80
2022/07/01 04:26:02;;;;;;;7.90;7.03;;;21.40;78.30;;;;;;5054741;28;20645;-80
2022/07/01 04:30:02;;;;;;;10.13;8.50;;;21.50;78.10;;;;;;5055565;28;20539;-79
2022/07/01 04:38:01;;;;;;;8.83;7.90;;;21.70;78.80;;;;;;5054815;28;20557;-80
2022/07/01 04:42:01;;;;;;;12.53;8.10;;;21.80;78.70;;;;;;5044521;28;20263;-79
2022/07/01 04:45:31;;;;;;;15.60;8.67;;;21.90;78.70;;;;;;5055920;28;20213;-80
2022/07/01 04:48:37;;;;;;;11.20;8.87;;;22.00;78.40;;;;;;5016921;28;20209;-80
2022/07/01 04:51:56;;;;;;;13.97;8.93;;;22.10;78.50;;;;;;5055873;28;20206;-80
2022/07/01 04:55:00;;;;;;;13.87;8.87;;;22.20;78.50;;;;;;5031832;28;20242;-79
2022/07/01 04:58:22;;;;;;;16.47;10.00;;;22.20;78.60;;;;;;5037681;28;20233;-79
2022/07/01 05:01:13;;;;;;;13.67;9.77;;;22.40;78.60;;;;;;5051522;28;20210;-80
2022/07/01 05:10:08;;;;;;;16.93;10.40;;;22.80;78.80;;;;;;5039982;28;20304;-79
2022/07/01 05:13:17;;;;;;;13.67;10.63;;;23.00;78.70;;;;;;5024370;28;20223;-79
2022/07/01 05:16:02;;;;;;;15.63;12.37;;;23.10;78.70;;;;;;5000451;28;20238;-79
2022/07/01 05:22:19;;;;;;;20.30;13.03;;;23.50;78.80;;;;;;5014075;28;20211;-80
2022/07/01 05:25:27;;;;;;;17.13;12.40;;;23.80;78.40;;;;;;5020272;28;20207;-79
2022/07/01 05:28:17;;;;;;;13.97;12.53;;;24.10;77.80;;;;;;5006448;28;20286;-80
2022/07/01 05:31:00;;;;;;;14.03;11.87;;;24.30;77.30;;;;;;5020684;28;20863;-79
2022/07/01 05:33:44;;;;;;;15.80;13.93;;;24.60;76.80;;;;;;5013173;28;20204;-79
2022/07/01 05:36:26;;;;;;;17.37;13.00;;;24.80;76.10;;;;;;5039048;28;20276;-79
2022/07/01 05:38:55;;;;;;;19.87;12.83;;;25.00;75.60;;;;;;5020015;28;20212;-81
2022/07/01 05:41:37;;;;;;;18.70;13.23;;;25.10;75.30;;;;;;5015940;28;20304;-79
2022/07/01 05:44:08;;;;;;;15.10;12.07;;;25.20;75.10;;;;;;5016695;28;20211;-79
2022/07/01 05:46:49;;;;;;;18.33;13.30;;;25.40;74.90;;;;;;5020616;28;20219;-79
2022/07/01 05:49:31;;;;;;;17.03;12.07;;;25.60;74.30;;;;;;5030654;28;20222;-79
2022/07/01 05:52:12;;;;;;;20.60;12.90;;;25.70;73.60;;;;;;4990847;28;20255;-79
2022/07/01 05:54:54;;;;;;;18.63;12.00;;;25.90;73.00;;;;;;5014306;28;20302;-79
2022/07/01 05:57:36;;;;;;;18.10;12.33;;;26.00;72.30;;;;;;4995415;28;20207;-80
2022/07/01 06:00:41;;;;;;;14.97;12.10;;;26.10;71.80;;;;;;5002674;28;20203;-79
2022/07/01 06:03:35;;;;;;;15.00;11.90;;;26.30;71.30;;;;;;5023481;28;20211;-80
2022/07/01 06:06:40;;;;;;;14.10;10.13;;;26.40;70.90;;;;;;5015479;28;20216;-79
2022/07/01 06:09:07;;;;;;;12.57;9.83;;;26.60;70.10;;;;;;4996467;28;20329;-80
2022/07/01 06:11:36;;;;;;;14.90;10.07;;;26.80;68.80;;;;;;5003199;28;20213;-80
2022/07/01 06:14:05;;;;;;;19.57;9.33;;;27.00;67.70;;;;;;4995298;28;20645;-80
2022/07/01 06:16:35;;;;;;;12.10;9.40;;;27.10;67.30;;;;;;4991580;28;20207;-79
2022/07/01 06:19:06;;;;;;;13.03;9.63;;;27.30;66.90;;;;;;4966323;28;20271;-80
2022/07/01 06:21:34;;;;;;;12.53;10.23;;;27.30;66.60;;;;;;5004691;28;20217;-81
2022/07/01 06:24:04;;;;;;;16.17;10.13;;;27.40;65.90;;;;;;4989842;28;20215;-80
2022/07/01 06:26:32;;;;;;;14.50;10.03;;;27.50;65.10;;;;;;4995334;28;20204;-79
2022/07/01 06:28:59;;;;;;;16.10;9.93;;;27.60;65.10;;;;;;5005427;28;20540;-80
2022/07/01 06:31:27;;;;;;;14.00;10.63;;;27.70;65.10;;;;;;4992676;28;20212;-80
2022/07/01 06:33:58;;;;;;;17.90;9.83;;;27.80;63.70;;;;;;5011281;28;20210;-80
2022/07/01 06:36:26;;;;;;;18.07;9.17;;;27.90;63.30;;;;;;4978931;28;20227;-80
2022/07/01 06:38:53;;;;;;;14.47;9.33;;;28.10;63.60;;;;;;4992642;28;20243;-81
2022/07/01 06:41:26;;;;;;;14.90;8.03;;;28.20;63.10;;;;;;4994937;28;20226;-80
2022/07/01 06:43:58;;;;;;;13.87;8.90;;;28.40;62.00;;;;;;5007127;28;20213;-80
2022/07/01 06:46:30;;;;;;;14.00;9.13;;;28.60;61.00;;;;;;4993422;28;20212;-80
2022/07/01 06:48:58;;;;;;;15.63;9.83;;;28.90;60.50;;;;;;4995939;28;20216;-80
2022/07/01 06:51:27;;;;;;;14.50;8.83;;;29.10;58.90;;;;;;5011442;28;20220;-80
2022/07/01 06:53:55;;;;;;;16.90;8.63;;;29.10;57.50;;;;;;4976496;28;20688;-80
2022/07/01 06:56:23;;;;;;;17.80;9.23;;;29.00;56.90;;;;;;4994288;28;20554;-81
2022/07/01 06:58:50;;;;;;;14.20;8.17;;;29.10;58.40;;;;;;4987846;28;20208;-81
2022/07/01 07:01:17;;;;;;;17.40;9.33;;;29.20;58.30;;;;;;4993968;28;20272;-81
2022/07/01 07:03:45;;;;;;;11.67;8.80;;;29.20;57.80;;;;;;4979989;28;20223;-80
2022/07/01 07:06:13;;;;;;;14.13;8.57;;;29.20;57.00;;;;;;4978956;28;20217;-81
2022/07/01 07:08:40;;;;;;;15.57;8.37;;;29.20;56.30;;;;;;4993595;28;20240;-80
2022/07/01 07:11:08;;;;;;;17.47;7.87;;;29.20;56.60;;;;;;5013392;28;20280;-82
2022/07/01 07:13:36;;;;;;;15.60;7.17;;;29.00;56.90;;;;;;5008621;28;20218;-81
2022/07/01 07:16:04;;;;;;;13.73;8.43;;;29.00;57.50;;;;;;5020389;28;20273;-81
2022/07/01 07:18:31;;;;;;;12.17;7.50;;;29.20;57.40;;;;;;5027651;28;20648;-81
2022/07/01 07:20:59;;;;;;;12.97;7.67;;;29.30;56.60;;;;;;5020276;28;20258;-80
2022/07/01 07:23:27;;;;;;;16.87;8.90;;;29.50;56.50;;;;;;5020100;28;20217;-81
2022/07/01 07:25:55;;;;;;;12.07;8.20;;;29.60;56.30;;;;;;5029239;28;20219;-81
2022/07/01 07:28:23;;;;;;;11.70;8.27;;;29.80;56.00;;;;;;5017509;28;20317;-81
2022/07/01 07:30:50;;;;;;;12.80;8.70;;;29.90;55.90;;;;;;5020563;28;20218;-81
2022/07/01 07:33:17;;;;;;;12.30;8.07;;;30.10;55.10;;;;;;5039181;28;20206;-81
2022/07/01 07:35:50;;;;;;;15.33;7.57;;;30.20;55.20;;;;;;5038529;28;21030;-81
2022/07/01 07:38:19;;;;;;;9.40;6.57;;;30.40;55.70;;;;;;5020626;28;20214;-81
2022/07/01 07:40:49;;;;;;;16.60;7.93;;;30.60;55.50;;;;;;5038216;28;20199;-81
2022/07/01 07:43:17;;;;;;;15.53;7.33;;;30.80;53.90;;;;;;5023832;28;20214;-81
2022/07/01 07:45:46;;;;;;;15.90;7.40;;;31.00;54.10;;;;;;5001248;28;20212;-81
2022/07/01 07:48:13;;;;;;;11.60;7.33;;;31.20;54.40;;;;;;5020717;28;20793;-81
2022/07/01 07:50:41;;;;;;;14.10;7.27;;;31.40;54.20;;;;;;5017647;28;20219;-82
2022/07/01 07:53:09;;;;;;;11.07;7.90;;;31.60;53.60;;;;;;5034232;28;20219;-81
2022/07/01 07:55:40;;;;;;;9.60;7.40;;;31.70;52.20;;;;;;5013374;28;20231;-81
2022/07/01 07:58:07;;;;;;;14.03;7.40;;;31.80;52.10;;;;;;5035566;28;20219;-82
2022/07/01 08:00:35;;;;;;;8.03;6.80;;;31.80;51.90;;;;;;5007761;28;20685;-81
2022/07/01 08:03:06;;;;;;;11.03;7.53;;;31.80;52.40;;;;;;5026541;28;20569;-81
2022/07/01 08:05:33;;;;;;;13.07;6.57;;;31.80;51.50;;;;;;5040617;28;20207;-81
2022/07/01 08:08:01;;;;;;;11.57;6.47;;;31.80;51.80;;;;;;5013911;28;20563;-82
2022/07/01 08:10:28;;;;;;;12.40;6.67;;;31.80;51.70;;;;;;5006376;28;20262;-81
2022/07/01 08:12:57;;;;;;;8.17;6.27;;;31.90;51.40;;;;;;5032363;28;20247;-82
2022/07/01 08:15:25;;;;;;;10.37;6.07;;;32.00;50.70;;;;;;5020431;28;20285;-81
2022/07/01 08:17:52;;;;;;;9.73;6.10;;;32.10;50.20;;;;;;5019530;28;20705;-82
2022/07/01 08:20:19;;;;;;;8.37;6.47;;;32.30;49.20;;;;;;5020179;28;20211;-81
2022/07/01 08:22:57;;;;;;;13.07;6.47;;;32.50;48.70;;;;;;5033870;28;20207;-81
2022/07/01 08:25:27;;;;;;;11.90;7.03;;;32.60;49.00;;;;;;5016887;28;20230;-81
2022/07/01 08:28:02;;;;;;;12.63;6.60;;;32.70;48.90;;;;;;5015893;28;20218;-80
2022/07/01 08:30:29;;;;;;;13.97;7.00;;;32.70;48.90;;;;;;5012514;28;20212;-78
2022/07/01 08:32:57;;;;;;;10.77;6.30;;;32.80;48.60;;;;;;5034203;28;20211;-79
2022/07/01 08:35:24;;;;;;;14.23;5.40;;;32.90;48.10;;;;;;5030986;28;20225;-81
2022/07/01 08:37:51;;;;;;;13.30;5.10;;;33.00;48.30;;;;;;5020032;28;20275;-80
2022/07/01 08:40:19;;;;;;;8.00;4.87;;;33.10;47.90;;;;;;5018728;28;20207;-80
2022/07/01 08:42:46;;;;;;;10.47;4.70;;;33.20;45.60;;;;;;5034837;28;20215;-80
2022/07/01 08:45:13;;;;;;;7.67;4.57;;;33.20;45.80;;;;;;5038170;28;20215;-79
2022/07/01 08:47:51;;;;;;;7.87;4.97;;;33.40;44.50;;;;;;5037119;28;20594;-80
2022/07/01 08:50:19;;;;;;;8.43;4.53;;;33.50;44.70;;;;;;5002815;28;20207;-80
2022/07/01 08:52:52;;;;;;;9.80;4.33;;;33.80;44.60;;;;;;5008605;28;20216;-79
2022/07/01 08:55:23;;;;;;;8.60;5.27;;;34.00;43.60;;;;;;5003871;28;20251;-80
2022/07/01 08:57:51;;;;;;;5.83;3.70;;;34.30;42.20;;;;;;5014800;28;20218;-79
2022/07/01 09:00:18;;;;;;;5.83;3.47;;;34.30;41.90;;;;;;5015040;28;20199;-79
2022/07/01 09:02:55;;;;;;;5.30;3.97;;;34.50;41.70;;;;;;5018625;28;20242;-80
2022/07/01 09:09:50;;;;;;;6.70;3.77;;;34.90;40.40;;;;;;5016280;28;20382;-79
2022/07/01 09:13:26;;;;;;;6.17;3.90;;;35.10;40.00;;;;;;5025310;28;20238;-80
2022/07/01 09:16:50;;;;;;;4.53;3.00;;;35.20;40.40;;;;;;5003480;28;20238;-80
2022/07/01 09:19:21;;;;;;;5.73;4.27;;;35.10;39.70;;;;;;5028301;28;20231;-80
2022/07/01 09:22:00;;;;;;;14.73;4.07;;;35.00;39.10;;;;;;5006424;28;20212;-80
2022/07/01 09:24:31;;;;;;;7.30;3.77;;;34.90;40.20;;;;;;5003656;28;20211;-80
2022/07/01 09:27:11;;;;;;;7.47;3.70;;;34.70;40.80;;;;;;5015825;28;20212;-81
2022/07/01 09:29:42;;;;;;;9.03;3.87;;;34.60;40.90;;;;;;5011066;28;20238;-81
2022/07/01 09:32:12;;;;;;;11.67;4.43;;;34.50;40.40;;;;;;5011412;28;20215;-81
2022/07/01 09:34:41;;;;;;;6.97;4.70;;;34.30;41.20;;;;;;5015511;28;20282;-81
2022/07/01 09:37:12;;;;;;;7.53;4.70;;;34.30;41.90;;;;;;5000568;28;20615;-81
2022/07/01 09:39:53;;;;;;;5.47;3.60;;;34.30;42.00;;;;;;5000517;28;20207;-80
2022/07/01 09:42:22;;;;;;;6.53;3.60;;;34.30;42.30;;;;;;5015354;28;20250;-80
2022/07/01 09:44:55;;;;;;;8.00;4.10;;;34.40;42.30;;;;;;5012570;28;20214;-80
2022/07/01 09:47:30;;;;;;;7.43;3.70;;;34.60;41.80;;;;;;5009496;28;20307;-81
2022/07/01 09:49:58;;;;;;;10.20;3.50;;;34.70;41.20;;;;;;5015645;28;20633;-81
2022/07/01 09:52:28;;;;;;;6.13;4.27;;;34.80;40.90;;;;;;5016086;28;20223;-81
2022/07/01 09:55:12;;;;;;;10.53;4.67;;;34.70;41.20;;;;;;5013468;28;20596;-81
2022/07/01 09:57:42;;;;;;;6.67;4.97;;;34.70;42.30;;;;;;5011795;28;20549;-81
2022/07/01 10:00:13;;;;;;;7.90;4.50;;;34.80;42.50;;;;;;4992293;28;20350;-81
2022/07/01 10:02:41;;;;;;;6.47;4.10;;;34.90;42.60;;;;;;5015129;28;20608;-80
2022/07/01 10:05:11;;;;;;;9.10;5.07;;;35.00;41.60;;;;;;5018184;28;20200;-80
2022/07/01 10:08:06;;;;;;;9.33;4.93;;;35.00;40.70;;;;;;5013518;28;20205;-80
2022/07/01 10:11:23;;;;;;;9.00;5.00;;;34.90;40.40;;;;;;5018819;28;20302;-81
2022/07/01 10:13:52;;;;;;;6.50;4.60;;;34.60;40.90;;;;;;4984701;28;20203;-81
2022/07/01 10:16:20;;;;;;;7.33;4.80;;;34.50;42.00;;;;;;5018244;28;20321;-81
2022/07/01 10:18:47;;;;;;;8.37;4.87;;;34.40;41.60;;;;;;5031545;28;20547;-80
2022/07/01 10:21:35;;;;;;;6.80;4.97;;;34.40;41.20;;;;;;5035380;28;20207;-81
2022/07/01 10:24:13;;;;;;;7.77;4.73;;;34.50;41.70;;;;;;5039943;28;20215;-81
2022/07/01 10:26:41;;;;;;;5.53;4.40;;;34.60;41.50;;;;;;5039915;28;20222;-81
2022/07/01 10:29:31;;;;;;;7.53;5.37;;;34.80;41.20;;;;;;5035787;28;20217;-80
2022/07/01 10:32:28;;;;;;;10.07;4.80;;;35.10;40.10;;;;;;5022377;28;20203;-80
2022/07/01 10:35:15;;;;;;;9.27;4.90;;;35.30;40.30;;;;;;4997451;28;20852;-81
2022/07/01 10:37:59;;;;;;;7.40;4.63;;;35.60;40.10;;;;;;5022222;28;20297;-81
2022/07/01 10:40:48;;;;;;;8.13;4.27;;;35.70;39.30;;;;;;5023284;28;20303;-81
2022/07/01 10:43:17;;;;;;;8.43;4.80;;;35.80;38.10;;;;;;5006071;28;20217;-81
2022/07/01 10:45:53;;;;;;;6.27;4.83;;;35.90;37.40;;;;;;5022751;28;20207;-81
2022/07/01 10:48:23;;;;;;;7.10;4.57;;;36.00;37.10;;;;;;5025588;28;20271;-81
2022/07/01 10:50:51;;;;;;;6.80;4.77;;;36.10;37.10;;;;;;5011755;28;20730;-81
2022/07/01 10:53:19;;;;;;;6.33;4.40;;;36.20;36.50;;;;;;5039447;28;20218;-81
2022/07/01 10:55:49;;;;;;;6.13;4.55;;;36.40;35.30;;;;;;5025976;28;20225;-80
2022/07/01 10:58:39;;;;;;;9.52;4.97;;;36.50;35.40;;;;;;4998088;28;20216;-80
2022/07/01 11:01:06;;;;;;;5.97;4.37;;;36.70;34.60;;;;;;5026738;28;20204;-81
2022/07/01 11:03:39;;;;;;;4.47;4.07;;;36.80;34.20;;;;;;5038920;28;20286;-81
2022/07/01 11:06:08;;;;;;;5.18;4.22;;;36.90;34.50;;;;;;5032981;28;20273;-81
2022/07/01 11:08:35;;;;;;;5.65;4.05;;;36.90;34.20;;;;;;5023098;28;20234;-80
2022/07/01 11:11:05;;;;;;;7.72;3.60;;;36.90;34.70;;;;;;5039645;28;20237;-81
2022/07/01 11:13:34;;;;;;;7.63;3.47;;;37.00;33.80;;;;;;5047804;28;20204;-81
2022/07/01 11:16:01;;;;;;;7.17;4.13;;;37.10;34.20;;;;;;5033761;28;20280;-81
2022/07/01 11:18:30;;;;;;;4.55;3.45;;;37.20;33.60;;;;;;5039681;28;20211;-81
2022/07/01 11:21:08;;;;;;;6.60;3.75;;;37.30;33.20;;;;;;5036831;28;20207;-80
2022/07/01 11:23:36;;;;;;;10.43;3.97;;;37.40;33.10;;;;;;5019548;28;20246;-80
2022/07/01 11:26:19;;;;;;;5.78;3.33;;;37.40;32.30;;;;;;5025588;28;20214;-81
2022/07/01 11:28:46;;;;;;;5.10;3.65;;;37.50;32.50;;;;;;5039225;28;20207;-81
2022/07/01 11:31:13;;;;;;;5.70;3.28;;;37.60;31.30;;;;;;5027631;28;20211;-80
2022/07/01 11:33:40;;;;;;;9.50;3.95;;;37.40;31.10;;;;;;5037439;28;20215;-80
2022/07/01 11:41:40;;;;;;;5.55;3.53;;;37.40;33.20;;;;;;5028203;28;20271;-80
2022/07/01 11:44:07;;;;;;;9.07;4.43;;;37.50;33.70;;;;;;5036813;28;20210;-80
2022/07/01 11:46:35;;;;;;;5.80;3.92;;;37.60;33.00;;;;;;5032073;28;20291;-80
2022/07/01 11:49:12;;;;;;;4.75;3.67;;;37.70;33.40;;;;;;5015603;28;20897;-80
2022/07/01 11:51:41;;;;;;;3.80;3.38;;;37.70;32.10;;;;;;5030156;28;20214;-80
2022/07/01 11:54:21;;;;;;;4.88;3.35;;;37.70;31.90;;;;;;5011296;28;20342;-80
2022/07/01 11:56:49;;;;;;;6.53;3.35;;;37.80;32.90;;;;;;5029431;28;20222;-80
2022/07/01 11:59:17;;;;;;;6.68;3.65;;;37.80;32.80;;;;;;5025493;28;20211;-80
2022/07/01 12:01:54;;;;;;;5.40;3.28;;;37.80;31.50;;;;;;5005311;28;20263;-80
2022/07/01 12:04:22;;;;;;;5.15;3.40;;;37.80;31.40;;;;;;5022316;28;20294;-80
2022/07/01 12:06:49;;;;;;;5.60;3.55;;;37.70;31.60;;;;;;5052663;28;20203;-80
2022/07/01 12:09:19;;;;;;;4.57;3.42;;;37.80;31.80;;;;;;5036103;28;20246;-80
2022/07/01 12:11:48;;;;;;;6.68;3.65;;;37.80;32.30;;;;;;5019518;28;20531;-80
2022/07/01 12:14:26;;;;;;;8.50;4.00;;;37.90;32.60;;;;;;5035201;28;20294;-80
2022/07/01 12:17:01;;;;;;;5.03;3.70;;;37.90;33.00;;;;;;5038899;28;20227;-80
2022/07/01 12:19:39;;;;;;;4.18;3.78;;;38.00;32.60;;;;;;5027873;28;20221;-80
2022/07/01 12:22:10;;;;;;;5.22;3.78;;;38.20;32.50;;;;;;4999333;28;20297;-80
2022/07/01 12:24:40;;;;;;;5.78;3.50;;;38.20;32.30;;;;;;5005531;28;20217;-80
2022/07/01 12:27:08;;;;;;;6.47;3.47;;;38.20;32.40;;;;;;5033609;28;20207;-80
2022/07/01 12:29:50;;;;;;;6.22;3.58;;;38.30;32.10;;;;;;5035596;28;20219;-80
2022/07/01 12:32:22;;;;;;;7.68;3.40;;;38.30;31.10;;;;;;5034516;28;20677;-82
2022/07/01 12:34:53;;;;;;;3.55;2.75;;;38.30;30.80;;;;;;5044999;28;20559;-81
2022/07/01 12:37:32;;;;;;;3.95;2.72;;;38.20;30.40;;;;;;5016209;28;20223;-81
2022/07/01 12:39:59;;;;;;;4.35;2.78;;;38.30;30.20;;;;;;5022004;28;20242;-81
2022/07/01 12:42:30;;;;;;;3.20;2.85;;;38.30;30.10;;;;;;5037457;28;20286;-80
2022/07/01 12:45:00;;;;;;;3.13;2.83;;;38.30;30.40;;;;;;5013820;28;20211;-81
2022/07/01 12:47:38;;;;;;;6.75;3.40;;;38.30;30.10;;;;;;5014337;28;20218;-79
2022/07/01 12:50:12;;;;;;;5.00;2.65;;;38.30;30.00;;;;;;5025645;28;20211;-80
2022/07/01 12:52:41;;;;;;;5.30;3.22;;;38.30;30.00;;;;;;5014113;28;20222;-81
2022/07/01 12:55:21;;;;;;;4.68;2.60;;;38.30;29.70;;;;;;5022176;28;20211;-81
2022/07/01 12:57:51;;;;;;;2.80;2.50;;;38.30;29.90;;;;;;5048486;28;20230;-80
2022/07/01 13:00:20;;;;;;;3.95;2.95;;;38.30;29.80;;;;;;5012311;28;20216;-79
2022/07/01 13:02:51;;;;;;;2.72;2.53;;;38.30;29.90;;;;;;5036092;28;20657;-80
2022/07/01 13:05:18;;;;;;;5.50;2.45;;;38.20;30.40;;;;;;5028040;28;20284;-79
2022/07/01 13:07:46;;;;;;;5.90;2.58;;;38.20;30.40;;;;;;5011369;28;20211;-80
2022/07/01 13:10:15;;;;;;;10.20;2.80;;;38.20;29.90;;;;;;5017929;28;20244;-80
2022/07/01 13:12:46;;;;;;;3.53;2.35;;;38.20;30.40;;;;;;5034192;28;20222;-80
2022/07/01 13:15:34;;;;;;;4.45;2.10;;;38.10;30.10;;;;;;5045618;28;20297;-78
2022/07/01 13:18:03;;;;;;;2.55;2.20;;;38.10;30.30;;;;;;5041360;28;20227;-78
2022/07/01 13:20:31;;;;;;;2.65;2.25;;;38.10;30.00;;;;;;5015101;28;20230;-79
2022/07/01 13:22:58;;;;;;;2.58;1.90;;;38.10;29.90;;;;;;5004948;28;20223;-79
2022/07/01 13:25:25;;;;;;;3.03;2.42;;;38.00;29.80;;;;;;5024810;28;20658;-79
2022/07/01 13:27:53;;;;;;;2.78;2.45;;;37.90;29.90;;;;;;5028706;28;20207;-79
2022/07/01 13:30:22;;;;;;;2.72;2.15;;;37.90;30.40;;;;;;5019537;28;20246;-78
2022/07/01 13:32:52;;;;;;;2.97;2.35;;;37.90;30.30;;;;;;5036785;28;20199;-79
2022/07/01 13:35:22;;;;;;;3.95;2.25;;;37.90;30.40;;;;;;5007687;28;20231;-79
2022/07/01 13:37:50;;;;;;;4.32;2.50;;;37.90;30.70;;;;;;5030576;28;20234;-79
2022/07/01 13:40:18;;;;;;;3.80;2.80;;;37.90;30.40;;;;;;5029834;28;20210;-81
2022/07/01 13:42:45;;;;;;;3.08;2.35;;;37.90;30.80;;;;;;5019229;28;20281;-81
2022/07/01 13:45:13;;;;;;;2.92;2.58;;;37.90;30.50;;;;;;5021708;28;20214;-80
2022/07/01 13:47:40;;;;;;;3.45;2.63;;;37.90;30.00;;;;;;5002965;28;20230;-79
2022/07/01 13:50:08;;;;;;;4.20;2.40;;;37.90;29.80;;;;;;5030123;28;20663;-79
2022/07/01 13:52:36;;;;;;;3.95;2.45;;;37.80;30.10;;;;;;5017618;28;20219;-80
2022/07/01 13:55:04;;;;;;;3.67;2.38;;;37.70;29.70;;;;;;5019418;28;20293;-79
2022/07/01 13:57:31;;;;;;;5.60;2.80;;;37.50;29.70;;;;;;4999957;28;20314;-79
2022/07/01 13:59:58;;;;;;;5.93;2.47;;;37.30;29.90;;;;;;5013868;28;20234;-79
2022/07/01 14:02:26;;;;;;;4.15;2.40;;;37.20;30.80;;;;;;5026557;28;20208;-80
2022/07/01 14:04:55;;;;;;;4.00;2.40;;;37.10;30.60;;;;;;5033045;28;20587;-79
2022/07/01 14:07:22;;;;;;;4.22;2.17;;;37.00;30.90;;;;;;5025228;28;20233;-78
2022/07/01 14:09:49;;;;;;;3.63;2.70;;;37.00;31.20;;;;;;5035935;28;20695;-79
2022/07/01 14:12:16;;;;;;;3.33;2.05;;;37.10;31.90;;;;;;5014648;28;20211;-79
2022/07/01 14:14:57;;;;;;;3.73;2.13;;;37.10;31.90;;;;;;5029475;28;20208;-79